createdAt,value
2017-09-28T00:02:25.032Z,16.93
2017-09-28T00:04:53.390Z,16.33
2017-09-28T00:07:23.257Z,17.17
2017-09-28T00:09:51.820Z,16.50
2017-09-28T00:12:20.165Z,16.03
2017-09-28T00:14:49.219Z,19.23
2017-09-28T00:17:17.546Z,17.97
2017-09-28T00:19:45.880Z,21.50
2017-09-28T00:22:14.977Z,19.73
2017-09-28T00:24:43.284Z,18.87
2017-09-28T00:27:11.620Z,19.07
2017-09-28T00:29:40.716Z,18.67
2017-09-28T00:32:09.051Z,16.50
2017-09-28T00:34:37.655Z,16.40
2017-09-28T00:37:06.017Z,23.07
2017-09-28T00:39:35.260Z,17.37
2017-09-28T00:42:03.637Z,15.77
2017-09-28T00:44:31.947Z,17.80
2017-09-28T00:47:00.275Z,16.43
2017-09-28T00:49:29.339Z,23.70
2017-09-28T00:51:57.668Z,16.67
2017-09-28T00:54:25.964Z,20.13
2017-09-28T00:56:54.316Z,16.10
2017-09-28T00:59:22.650Z,19.73
2017-09-28T01:01:50.952Z,18.70
2017-09-28T01:04:19.255Z,23.37
2017-09-28T01:06:47.587Z,13.90
2017-09-28T01:09:15.875Z,19.73
2017-09-28T01:11:44.211Z,14.17
2017-09-28T01:14:13.309Z,18.83
2017-09-28T01:16:41.635Z,16.60
2017-09-28T01:19:10.699Z,17.70
2017-09-28T01:21:39.048Z,14.27
2017-09-28T01:24:07.471Z,16.67
2017-09-28T01:26:36.602Z,21.47
2017-09-28T01:29:05.919Z,16.87
2017-09-28T01:31:35.083Z,15.70
2017-09-28T01:34:03.578Z,17.10
2017-09-28T01:36:31.934Z,14.33
2017-09-28T01:39:00.245Z,18.20
2017-09-28T01:41:29.331Z,14.83
2017-09-28T01:43:57.659Z,22.20
2017-09-28T01:46:25.951Z,19.00
2017-09-28T01:48:54.512Z,15.47
2017-09-28T01:51:22.843Z,12.60
2017-09-28T01:53:51.199Z,13.90
2017-09-28T01:56:19.527Z,15.37
2017-09-28T01:58:47.818Z,15.50
2017-09-28T02:01:16.156Z,16.03
2017-09-28T02:03:44.476Z,15.60
2017-09-28T02:06:12.831Z,17.60
2017-09-28T02:08:41.128Z,18.33
2017-09-28T02:11:09.464Z,13.40
2017-09-28T02:13:37.793Z,15.00
2017-09-28T02:16:06.872Z,17.90
2017-09-28T02:18:35.235Z,18.53
2017-09-28T02:21:03.625Z,12.47
2017-09-28T02:23:32.816Z,17.37
2017-09-28T02:26:01.115Z,12.60
2017-09-28T02:28:29.458Z,25.30
2017-09-28T02:30:58.526Z,18.10
2017-09-28T02:33:26.844Z,13.90
2017-09-28T02:35:55.185Z,16.80
2017-09-28T02:38:24.290Z,17.33
2017-09-28T02:40:53.422Z,14.00
2017-09-28T02:43:22.581Z,12.07
2017-09-28T02:45:50.888Z,18.33
2017-09-28T02:48:19.217Z,16.90
2017-09-28T02:50:47.540Z,15.03
2017-09-28T02:53:15.831Z,15.40
2017-09-28T02:55:44.160Z,19.50
2017-09-28T02:58:13.224Z,14.93
2017-09-28T03:00:41.551Z,13.80
2017-09-28T03:03:09.895Z,13.63
2017-09-28T03:05:38.296Z,16.00
2017-09-28T03:08:07.467Z,17.80
2017-09-28T03:10:35.815Z,15.80
2017-09-28T03:13:04.237Z,13.73
2017-09-28T03:15:32.584Z,14.00
2017-09-28T03:18:02.508Z,12.33
2017-09-28T03:20:30.804Z,20.30
2017-09-28T03:22:59.136Z,18.73
2017-09-28T03:25:27.464Z,12.87
2017-09-28T03:27:56.536Z,14.47
2017-09-28T03:30:24.863Z,15.50
2017-09-28T03:32:53.962Z,13.57
2017-09-28T03:35:22.321Z,15.53
2017-09-28T03:37:50.782Z,13.30
2017-09-28T03:40:19.091Z,16.10
2017-09-28T03:42:48.166Z,22.40
2017-09-28T03:45:16.485Z,16.90
2017-09-28T03:47:44.791Z,15.93
2017-09-28T03:50:13.115Z,14.67
2017-09-28T03:52:41.517Z,20.27
2017-09-28T03:55:09.924Z,13.53
2017-09-28T03:57:38.406Z,16.10
2017-09-28T04:00:06.826Z,13.57
2017-09-28T04:02:35.219Z,14.50
2017-09-28T04:05:03.679Z,16.53
2017-09-28T04:07:32.013Z,15.47
2017-09-28T04:10:00.307Z,17.77
2017-09-28T04:12:28.641Z,15.40
2017-09-28T04:14:56.927Z,16.40
2017-09-28T04:17:25.224Z,18.20
2017-09-28T04:19:53.547Z,12.50
2017-09-28T04:22:21.851Z,16.10
2017-09-28T04:24:50.180Z,18.20
2017-09-28T04:27:19.257Z,15.30
2017-09-28T04:29:47.581Z,17.67
2017-09-28T04:32:15.957Z,17.07
2017-09-28T04:34:44.380Z,16.00
2017-09-28T04:37:12.702Z,14.47
2017-09-28T04:39:41.768Z,17.80
2017-09-28T04:42:10.096Z,15.67
2017-09-28T04:44:38.416Z,21.93
2017-09-28T04:47:06.770Z,17.57
2017-09-28T04:49:35.068Z,17.60
2017-09-28T04:52:03.426Z,14.80
2017-09-28T04:54:31.724Z,16.70
2017-09-28T04:57:00.059Z,17.67
2017-09-28T04:59:28.356Z,20.80
2017-09-28T05:01:57.416Z,42.37
2017-09-28T05:04:25.752Z,15.33
2017-09-28T05:06:54.085Z,17.30
2017-09-28T05:09:22.404Z,13.10
2017-09-28T05:11:50.735Z,18.93
2017-09-28T05:14:19.044Z,22.07
2017-09-28T05:16:47.367Z,16.30
2017-09-28T05:19:16.431Z,21.00
2017-09-28T05:21:44.776Z,15.53
2017-09-28T05:24:13.106Z,16.03
2017-09-28T05:26:42.167Z,16.40
2017-09-28T05:29:10.499Z,20.23
2017-09-28T05:31:38.837Z,19.40
2017-09-28T05:34:07.907Z,16.80
2017-09-28T05:36:36.288Z,18.07
2017-09-28T05:39:04.625Z,16.90
2017-09-28T05:41:32.949Z,15.83
2017-09-28T05:44:02.020Z,15.30
2017-09-28T05:46:30.343Z,17.07
2017-09-28T05:48:58.743Z,16.97
2017-09-28T05:51:27.075Z,15.20
2017-09-28T05:53:56.175Z,18.70
2017-09-28T05:56:24.471Z,18.13
2017-09-28T05:58:52.806Z,18.30
2017-09-28T06:01:21.882Z,20.00
2017-09-28T06:03:51.403Z,17.40
2017-09-28T06:06:20.524Z,19.90
2017-09-28T06:08:48.818Z,19.07
2017-09-28T06:11:17.269Z,17.87
2017-09-28T06:13:45.669Z,25.40
2017-09-28T06:16:13.996Z,22.03
2017-09-28T06:18:43.099Z,20.53
2017-09-28T06:21:11.400Z,19.37
2017-09-28T06:23:39.700Z,25.10
2017-09-28T06:26:08.031Z,19.03
2017-09-28T06:28:37.155Z,19.60
2017-09-28T06:31:06.287Z,25.43
2017-09-28T06:33:34.612Z,25.30
2017-09-28T06:36:02.916Z,21.03
2017-09-28T06:38:31.236Z,23.00
2017-09-28T06:40:59.535Z,19.87
2017-09-28T06:43:27.900Z,17.93
2017-09-28T06:45:56.191Z,19.10
2017-09-28T06:48:24.488Z,19.67
2017-09-28T06:50:52.836Z,16.70
2017-09-28T06:53:21.180Z,20.50
2017-09-28T06:55:50.313Z,22.83
2017-09-28T06:58:19.383Z,21.17
2017-09-28T07:00:47.712Z,15.63
2017-09-28T07:03:16.003Z,20.07
2017-09-28T07:05:44.340Z,18.60
2017-09-28T07:08:13.445Z,15.17
2017-09-28T07:10:42.751Z,17.50
2017-09-28T07:13:11.088Z,19.83
2017-09-28T07:15:40.142Z,18.60
2017-09-28T07:18:08.493Z,21.90
2017-09-28T07:20:38.323Z,19.67
2017-09-28T07:23:08.188Z,20.63
2017-09-28T07:25:37.331Z,20.20
2017-09-28T07:28:05.686Z,18.80
2017-09-28T07:30:34.024Z,19.90
2017-09-28T07:33:02.325Z,20.03
2017-09-28T07:35:30.656Z,18.53
2017-09-28T07:37:58.980Z,16.63
2017-09-28T07:40:27.279Z,18.60
2017-09-28T07:42:55.631Z,17.10
2017-09-28T07:45:23.923Z,20.77
2017-09-28T07:47:52.992Z,20.07
2017-09-28T07:50:21.436Z,19.87
2017-09-28T07:52:50.535Z,20.53
2017-09-28T07:55:18.864Z,19.90
2017-09-28T07:57:47.956Z,20.40
2017-09-28T08:00:16.256Z,20.50
2017-09-28T08:02:44.672Z,21.77
2017-09-28T08:05:12.976Z,17.93
2017-09-28T08:07:41.368Z,80.53
2017-09-28T08:10:09.665Z,19.33
2017-09-28T08:12:38.001Z,20.10
2017-09-28T08:15:07.164Z,19.50
2017-09-28T08:17:35.468Z,23.33
2017-09-28T08:20:03.852Z,22.13
2017-09-28T08:22:32.147Z,21.83
2017-09-28T08:25:00.468Z,23.17
2017-09-28T08:27:28.807Z,20.20
2017-09-28T08:29:59.938Z,24.00
2017-09-28T08:32:28.275Z,18.33
2017-09-28T08:34:56.578Z,19.90
2017-09-28T08:37:24.872Z,18.10
2017-09-28T08:39:53.208Z,22.10
2017-09-28T08:42:22.315Z,17.40
2017-09-28T08:44:50.703Z,20.73
2017-09-28T08:47:19.131Z,26.33
2017-09-28T08:49:48.211Z,21.03
2017-09-28T08:52:16.556Z,22.03
2017-09-28T08:54:45.624Z,21.43
2017-09-28T08:57:13.928Z,25.47
2017-09-28T08:59:42.252Z,28.20
2017-09-28T09:02:10.559Z,18.37
2017-09-28T09:04:38.958Z,19.97
2017-09-28T09:07:07.267Z,20.63
2017-09-28T09:09:35.581Z,17.50
2017-09-28T09:12:04.347Z,25.97
2017-09-28T09:14:32.788Z,25.23
2017-09-28T09:17:02.640Z,24.00
2017-09-28T09:19:30.935Z,20.37
2017-09-28T09:21:59.234Z,25.50
2017-09-28T09:24:27.556Z,22.30
2017-09-28T09:26:56.644Z,23.67
2017-09-28T09:29:25.044Z,23.87
2017-09-28T09:31:53.384Z,24.37
2017-09-28T09:34:22.449Z,24.27
2017-09-28T09:36:50.776Z,20.60
2017-09-28T09:39:19.275Z,19.03
2017-09-28T09:41:47.572Z,25.73
2017-09-28T09:44:15.868Z,21.00
2017-09-28T09:46:44.280Z,26.67
2017-09-28T09:49:12.787Z,28.73
2017-09-28T09:51:41.114Z,23.13
2017-09-28T09:54:10.315Z,22.97
2017-09-28T09:56:38.619Z,22.33
2017-09-28T09:59:06.955Z,20.10
2017-09-28T10:01:36.025Z,21.90
2017-09-28T10:04:04.343Z,22.03
2017-09-28T10:06:36.323Z,20.80
2017-09-28T10:09:21.772Z,20.23
2017-09-28T10:12:01.668Z,21.13
2017-09-28T10:14:41.916Z,20.73
2017-09-28T10:17:14.428Z,21.77
2017-09-28T10:19:43.491Z,16.90
2017-09-28T10:22:11.815Z,21.37
2017-09-28T10:24:40.111Z,20.57
2017-09-28T10:27:08.444Z,16.87
2017-09-28T10:29:37.656Z,18.43
2017-09-28T10:32:05.948Z,19.57
2017-09-28T10:34:34.467Z,21.83
2017-09-28T10:37:03.572Z,19.57
2017-09-28T10:39:31.859Z,20.50
2017-09-28T10:42:00.183Z,24.60
2017-09-28T10:44:28.476Z,23.57
2017-09-28T10:46:56.820Z,23.57
2017-09-28T10:49:25.875Z,21.20
2017-09-28T10:51:54.172Z,18.30
2017-09-28T10:54:22.503Z,21.10
2017-09-28T10:56:50.843Z,27.23
2017-09-28T10:59:19.904Z,18.37
2017-09-28T11:01:48.194Z,23.13
2017-09-28T11:04:16.527Z,18.73
2017-09-28T11:06:44.860Z,18.37
2017-09-28T11:09:13.184Z,17.50
2017-09-28T11:11:41.518Z,20.03
2017-09-28T11:14:09.807Z,21.00
2017-09-28T11:16:38.131Z,20.23
2017-09-28T11:19:06.491Z,20.47
2017-09-28T11:21:34.868Z,29.13
2017-09-28T11:24:03.996Z,21.87
2017-09-28T11:26:33.122Z,18.73
2017-09-28T11:29:02.216Z,23.57
2017-09-28T11:31:30.512Z,19.60
2017-09-28T11:33:58.831Z,22.30
2017-09-28T11:36:27.775Z,20.13
2017-09-28T11:38:56.108Z,21.13
2017-09-28T11:41:24.375Z,18.60
2017-09-28T11:43:52.719Z,20.57
2017-09-28T11:46:21.046Z,16.87
2017-09-28T11:48:49.367Z,21.93
2017-09-28T11:51:18.460Z,18.27
2017-09-28T11:53:47.556Z,21.37
2017-09-28T11:56:15.872Z,26.30
2017-09-28T11:58:44.168Z,22.27
2017-09-28T12:01:12.692Z,22.53
2017-09-28T12:03:40.987Z,24.60
2017-09-28T12:06:09.292Z,17.43
2017-09-28T12:08:37.706Z,20.73
2017-09-28T12:11:06.009Z,21.30
2017-09-28T12:13:34.327Z,19.37
2017-09-28T12:16:03.384Z,24.23
2017-09-28T12:18:31.678Z,21.63
2017-09-28T12:21:00.106Z,19.87
2017-09-28T12:23:28.400Z,18.70
2017-09-28T12:25:56.732Z,18.50
2017-09-28T12:28:25.051Z,21.60
2017-09-28T12:30:53.383Z,19.17
2017-09-28T12:33:21.688Z,26.60
2017-09-28T12:35:50.040Z,20.07
2017-09-28T12:38:18.379Z,19.80
2017-09-28T12:40:47.564Z,16.20
2017-09-28T12:43:15.864Z,21.03
2017-09-28T12:45:44.183Z,21.10
2017-09-28T12:48:12.502Z,19.67
2017-09-28T12:50:41.696Z,16.80
2017-09-28T12:53:09.983Z,17.77
2017-09-28T12:55:38.312Z,18.27
2017-09-28T12:58:06.624Z,16.03
2017-09-28T13:00:35.729Z,20.43
2017-09-28T13:03:04.052Z,17.20
2017-09-28T13:05:33.143Z,16.17
2017-09-28T13:08:01.539Z,15.97
2017-09-28T13:10:29.940Z,18.03
2017-09-28T13:12:58.231Z,16.17
2017-09-28T13:15:26.751Z,16.10
2017-09-28T13:17:55.156Z,25.83
2017-09-28T13:20:23.535Z,15.87
2017-09-28T13:22:51.827Z,17.07
2017-09-28T13:25:20.119Z,16.10
2017-09-28T13:27:48.491Z,20.40
2017-09-28T13:30:16.788Z,19.70
2017-09-28T13:32:45.075Z,19.33
2017-09-28T13:35:13.400Z,20.00
2017-09-28T13:37:41.723Z,16.13
2017-09-28T13:40:10.025Z,13.90
2017-09-28T13:42:39.300Z,13.87
2017-09-28T13:45:07.596Z,15.23
2017-09-28T13:47:35.899Z,14.37
2017-09-28T13:50:04.257Z,15.20
2017-09-28T13:52:32.547Z,16.10
2017-09-28T13:55:01.648Z,15.10
2017-09-28T13:57:29.975Z,16.60
2017-09-28T13:59:58.268Z,14.33
2017-09-28T14:02:27.457Z,16.40
2017-09-28T14:04:55.752Z,15.70
2017-09-28T14:07:24.164Z,14.17
2017-09-28T14:09:52.523Z,16.47
2017-09-28T14:12:20.827Z,15.63
2017-09-28T14:14:49.119Z,20.43
2017-09-28T14:17:17.475Z,17.13
2017-09-28T14:19:45.767Z,16.87
2017-09-28T14:22:14.100Z,16.60
2017-09-28T14:24:43.200Z,15.20
2017-09-28T14:27:11.595Z,19.77
2017-09-28T14:29:39.887Z,16.90
2017-09-28T14:32:08.206Z,19.13
2017-09-28T14:34:36.620Z,19.23
2017-09-28T14:37:05.008Z,16.97
2017-09-28T14:39:33.417Z,21.73
2017-09-28T14:42:02.520Z,24.00
2017-09-28T14:44:30.821Z,20.23
2017-09-28T14:46:59.107Z,22.70
2017-09-28T14:49:27.445Z,16.57
2017-09-28T14:51:55.740Z,17.93
2017-09-28T14:54:24.144Z,20.90
2017-09-28T14:56:52.483Z,17.90
2017-09-28T14:59:21.593Z,19.53
2017-09-28T15:01:50.732Z,22.10
2017-09-28T15:04:19.795Z,18.60
2017-09-28T15:06:48.124Z,19.40
2017-09-28T15:09:16.423Z,17.43
2017-09-28T15:11:44.744Z,20.00
2017-09-28T15:14:13.843Z,19.63
2017-09-28T15:16:43.776Z,20.73
2017-09-28T15:19:12.180Z,22.80
2017-09-28T15:21:40.504Z,27.00
2017-09-28T15:24:08.805Z,16.50
2017-09-28T15:26:37.135Z,17.20
2017-09-28T15:29:05.466Z,18.20
2017-09-28T15:31:33.859Z,15.47
2017-09-28T15:34:02.196Z,23.70
2017-09-28T15:36:30.495Z,20.90
2017-09-28T15:38:58.893Z,16.83
2017-09-28T15:41:27.211Z,18.20
2017-09-28T15:43:57.013Z,19.50
2017-09-28T15:46:25.339Z,19.03
2017-09-28T15:48:53.632Z,23.30
2017-09-28T15:51:22.048Z,17.40
2017-09-28T15:53:50.556Z,22.13
2017-09-28T15:56:18.960Z,25.03
2017-09-28T15:58:47.278Z,36.47
2017-09-28T16:01:15.575Z,29.23
2017-09-28T16:03:45.408Z,20.17
2017-09-28T16:06:13.800Z,25.57
2017-09-28T16:08:42.091Z,26.57
2017-09-28T16:11:10.503Z,19.27
2017-09-28T16:13:38.827Z,22.77
2017-09-28T16:16:07.158Z,22.57
2017-09-28T16:18:36.336Z,23.77
2017-09-28T16:21:06.188Z,18.43
2017-09-28T16:23:34.520Z,23.13
2017-09-28T16:26:02.852Z,21.10
2017-09-28T16:28:31.144Z,17.93
2017-09-28T16:30:59.471Z,23.07
2017-09-28T16:33:27.800Z,23.77
2017-09-28T16:35:56.124Z,26.53
2017-09-28T16:38:25.224Z,20.03
2017-09-28T16:40:53.543Z,24.50
2017-09-28T16:43:22.951Z,24.37
2017-09-28T16:45:51.247Z,22.87
2017-09-28T16:48:21.094Z,24.30
2017-09-28T16:50:50.936Z,23.07
2017-09-28T16:53:19.229Z,28.43
2017-09-28T16:55:47.520Z,26.03
2017-09-28T16:58:15.836Z,25.00
2017-09-28T17:00:44.221Z,27.17
2017-09-28T17:03:12.624Z,24.47
2017-09-28T17:05:40.958Z,25.23
2017-09-28T17:08:10.048Z,31.47
2017-09-28T17:10:38.392Z,26.47
2017-09-28T17:13:07.460Z,25.77
2017-09-28T17:15:35.795Z,27.50
2017-09-28T17:18:04.888Z,31.27
2017-09-28T17:20:33.182Z,28.43
2017-09-28T17:23:01.512Z,25.37
2017-09-28T17:25:29.833Z,26.87
2017-09-28T17:27:58.900Z,29.50
2017-09-28T17:30:27.315Z,24.63
2017-09-28T17:32:55.608Z,29.00
2017-09-28T17:35:23.936Z,26.33
2017-09-28T17:37:52.231Z,26.53
2017-09-28T17:40:20.632Z,30.63
2017-09-28T17:42:48.971Z,27.50
2017-09-28T17:45:18.042Z,25.30
2017-09-28T17:47:46.332Z,22.33
2017-09-28T17:50:14.761Z,28.83
2017-09-28T17:52:43.055Z,29.77
2017-09-28T17:55:11.468Z,27.93
2017-09-28T17:57:39.756Z,29.83
2017-09-28T18:00:08.275Z,35.77
2017-09-28T18:02:36.566Z,31.90
2017-09-28T18:05:04.874Z,30.87
2017-09-28T18:07:33.195Z,37.90
2017-09-28T18:10:01.592Z,32.30
2017-09-28T18:12:29.900Z,33.97
2017-09-28T18:14:59.128Z,31.37
2017-09-28T18:17:28.192Z,34.73
2017-09-28T18:19:56.488Z,31.60
2017-09-28T18:22:24.835Z,33.93
2017-09-28T18:24:53.228Z,31.00
2017-09-28T18:27:21.528Z,29.33
2017-09-28T18:29:49.832Z,28.83
2017-09-28T18:32:18.156Z,32.83
2017-09-28T18:34:46.556Z,30.90
2017-09-28T18:37:16.403Z,34.43
2017-09-28T18:39:44.708Z,35.03
2017-09-28T18:42:13.023Z,34.00
2017-09-28T18:44:42.103Z,37.57
2017-09-28T18:47:10.444Z,33.30
2017-09-28T18:49:39.509Z,36.80
2017-09-28T18:52:07.836Z,36.63
2017-09-28T18:54:37.682Z,32.13
2017-09-28T18:57:07.616Z,35.93
2017-09-28T18:59:37.460Z,37.90
2017-09-28T19:02:05.771Z,32.87
2017-09-28T19:04:34.867Z,41.00
2017-09-28T19:07:03.209Z,32.53
2017-09-28T19:09:32.264Z,39.20
2017-09-28T19:12:00.566Z,33.20
2017-09-28T19:14:28.895Z,152.20
2017-09-28T19:16:58.732Z,104.20
2017-09-28T19:19:27.062Z,45.23
2017-09-28T19:21:56.152Z,41.40
2017-09-28T19:24:24.467Z,41.10
2017-09-28T19:26:54.292Z,42.33
2017-09-28T19:29:22.617Z,40.63
2017-09-28T19:31:50.917Z,39.83
2017-09-28T19:34:19.248Z,45.73
2017-09-28T19:36:47.576Z,41.97
2017-09-28T19:39:16.004Z,35.30
2017-09-28T19:41:44.300Z,40.50
2017-09-28T19:44:12.612Z,38.83
2017-09-28T19:46:41.007Z,39.70
2017-09-28T19:49:09.300Z,39.47
2017-09-28T19:51:37.831Z,44.83
2017-09-28T19:54:06.136Z,42.83
2017-09-28T19:56:35.200Z,42.73
2017-09-28T19:59:03.548Z,40.43
2017-09-28T20:01:33.355Z,43.27
2017-09-28T20:04:01.676Z,46.63
2017-09-28T20:06:29.964Z,44.00
2017-09-28T20:08:58.259Z,41.10
2017-09-28T20:11:26.579Z,43.57
2017-09-28T20:13:54.924Z,42.50
2017-09-28T20:16:23.980Z,39.87
2017-09-28T20:18:52.272Z,40.93
2017-09-28T20:21:20.597Z,42.07
2017-09-28T20:23:48.892Z,41.10
2017-09-28T20:26:17.211Z,36.30
2017-09-28T20:28:45.615Z,40.10
2017-09-28T20:31:13.953Z,38.67
2017-09-28T20:33:42.332Z,39.47
2017-09-28T20:36:10.728Z,43.00
2017-09-28T20:38:39.052Z,38.80
2017-09-28T20:41:07.354Z,46.20
2017-09-28T20:43:36.460Z,38.30
2017-09-28T20:46:06.310Z,38.20
2017-09-28T20:48:34.628Z,37.73
2017-09-28T20:51:02.985Z,39.43
2017-09-28T20:53:31.311Z,43.93
2017-09-28T20:55:59.640Z,41.33
2017-09-28T20:58:28.703Z,41.43
2017-09-28T21:00:57.039Z,36.77
2017-09-28T21:03:25.375Z,44.03
2017-09-28T21:05:53.744Z,37.73
2017-09-28T21:08:22.136Z,42.57
2017-09-28T21:10:50.456Z,40.00
2017-09-28T21:13:18.840Z,40.23
2017-09-28T21:15:47.133Z,38.97
2017-09-28T21:18:15.429Z,36.57
2017-09-28T21:20:43.763Z,38.33
2017-09-28T21:23:13.568Z,48.57
2017-09-28T21:25:42.008Z,46.60
2017-09-28T21:28:11.004Z,38.50
2017-09-28T21:30:39.368Z,39.07
2017-09-28T21:33:08.107Z,39.83
2017-09-28T21:35:36.613Z,39.43
2017-09-28T21:38:06.667Z,41.90
2017-09-28T21:40:35.372Z,39.40
2017-09-28T21:43:05.284Z,40.60
2017-09-28T21:45:34.377Z,41.80
2017-09-28T21:48:04.186Z,34.03
2017-09-28T21:50:33.276Z,34.60
2017-09-28T21:53:01.581Z,41.50
2017-09-28T21:55:29.980Z,43.47
2017-09-28T21:57:58.287Z,39.33
2017-09-28T22:00:26.611Z,42.33
2017-09-28T22:02:54.948Z,41.30
2017-09-28T22:05:24.280Z,40.13
2017-09-28T22:07:53.741Z,37.57
2017-09-28T22:10:22.023Z,49.07
2017-09-28T22:12:50.349Z,41.30
2017-09-28T22:15:18.643Z,43.53
2017-09-28T22:17:46.959Z,39.80
2017-09-28T22:20:15.276Z,42.23
2017-09-28T22:22:43.608Z,44.07
2017-09-28T22:25:12.664Z,65.37
2017-09-28T22:27:40.956Z,40.57
2017-09-28T22:30:09.703Z,37.27
2017-09-28T22:35:14.098Z,45.97
2017-09-28T22:37:42.425Z,47.60
2017-09-28T22:40:10.816Z,44.00
2017-09-28T22:42:40.686Z,38.70
2017-09-28T22:45:09.257Z,39.40
2017-09-28T22:47:37.681Z,45.20
2017-09-28T22:50:06.255Z,46.13
2017-09-28T22:52:34.846Z,43.03
2017-09-28T22:55:03.674Z,41.53
2017-09-28T22:57:32.075Z,41.63
2017-09-28T23:00:00.394Z,40.17
2017-09-28T23:02:28.693Z,40.87
2017-09-28T23:04:57.035Z,38.13
2017-09-28T23:07:26.387Z,32.23
2017-09-28T23:09:54.913Z,40.40
2017-09-28T23:12:23.417Z,37.00
2017-09-28T23:14:51.724Z,39.73
2017-09-28T23:17:20.022Z,38.87
2017-09-28T23:19:48.444Z,40.27
2017-09-28T23:22:16.763Z,36.83
2017-09-28T23:24:46.565Z,38.40
2017-09-28T23:27:15.088Z,35.63
2017-09-28T23:29:43.379Z,41.47
2017-09-28T23:32:11.711Z,38.53
2017-09-28T23:34:40.897Z,35.50
2017-09-28T23:37:09.192Z,37.20
2017-09-28T23:39:37.692Z,34.43
2017-09-28T23:42:06.237Z,32.07
2017-09-28T23:44:34.644Z,38.17
2017-09-28T23:47:04.032Z,37.67
2017-09-28T23:49:32.382Z,34.83
2017-09-28T23:52:00.680Z,37.77
2017-09-28T23:54:28.995Z,34.90
2017-09-28T23:56:58.083Z,38.70
2017-09-28T23:59:26.379Z,40.73
